Time;durP1;ratioP1;P1;durP2;ratioP2;P2;SDS_P1;SDS_P2;PMS_P1;PMS_P2;Temp;Humidity;BMP_temperature;BMP_pressure;BME280_temperature;BME280_humidity;BME280_pressure;Samples;Min_cycle;Max_cycle;Signal;HPM_P1;HPM_P2
2023/08/21 00:01:35;;;;;;;14.45;6.25;;;25.50;99.90;;;;;;4992479;28;20518;-81
2023/08/21 00:04:01;;;;;;;9.25;6.30;;;25.50;99.90;;;;;;5009080;28;20050;-81
2023/08/21 00:06:28;;;;;;;9.02;6.43;;;25.50;99.90;;;;;;4995505;28;20074;-82
2023/08/21 00:08:55;;;;;;;9.07;5.57;;;25.40;99.90;;;;;;4994686;28;20093;-81
2023/08/21 00:11:22;;;;;;;9.75;6.43;;;25.50;99.90;;;;;;4996012;28;20054;-80
2023/08/21 00:13:49;;;;;;;7.80;5.68;;;25.40;99.90;;;;;;4996317;28;20128;-81
2023/08/21 00:16:17;;;;;;;7.28;6.18;;;25.40;99.90;;;;;;4989948;28;20047;-81
2023/08/21 00:18:44;;;;;;;11.75;5.78;;;25.40;99.90;;;;;;4996135;28;20106;-81
2023/08/21 00:21:11;;;;;;;12.00;6.90;;;25.40;99.90;;;;;;4999526;28;20084;-81
2023/08/21 00:23:38;;;;;;;11.60;6.20;;;25.40;99.90;;;;;;5000539;28;20041;-81
2023/08/21 00:26:05;;;;;;;10.90;6.82;;;25.30;99.90;;;;;;4991221;28;20046;-81
2023/08/21 00:28:33;;;;;;;10.23;6.28;;;25.30;99.90;;;;;;5000211;28;20052;-81
2023/08/21 00:31:01;;;;;;;8.95;6.25;;;25.30;99.90;;;;;;4993815;28;20093;-80
2023/08/21 00:33:29;;;;;;;9.25;6.50;;;25.30;99.90;;;;;;4995130;28;20042;-80
2023/08/21 00:35:56;;;;;;;8.13;6.45;;;25.30;99.90;;;;;;4998852;28;20050;-81
2023/08/21 00:38:23;;;;;;;7.10;6.25;;;25.20;99.90;;;;;;5002420;28;20053;-81
2023/08/21 00:40:50;;;;;;;9.93;6.05;;;25.20;99.90;;;;;;4994654;28;20109;-81
2023/08/21 00:43:17;;;;;;;9.15;6.45;;;25.20;99.90;;;;;;5012951;28;20043;-81
2023/08/21 00:45:46;;;;;;;10.77;6.20;;;25.10;99.90;;;;;;4988582;28;20101;-81
2023/08/21 00:48:14;;;;;;;9.60;5.75;;;25.10;99.90;;;;;;4993666;28;20047;-81
2023/08/21 00:50:41;;;;;;;8.90;5.97;;;25.10;99.90;;;;;;5003666;28;20053;-81
2023/08/21 00:53:08;;;;;;;10.25;6.70;;;25.10;99.90;;;;;;4999309;28;20058;-81
2023/08/21 00:55:36;;;;;;;8.23;6.80;;;25.10;99.90;;;;;;4992595;28;20050;-80
2023/08/21 00:58:04;;;;;;;7.30;6.00;;;25.10;99.90;;;;;;4993694;28;20043;-81
2023/08/21 01:00:32;;;;;;;10.07;6.28;;;25.00;99.90;;;;;;4990584;28;20042;-81
2023/08/21 01:02:59;;;;;;;12.70;6.45;;;25.00;99.90;;;;;;4995150;28;20053;-81
2023/08/21 01:05:25;;;;;;;10.65;6.65;;;25.00;99.90;;;;;;5000717;28;20052;-81
2023/08/21 01:08:05;;;;;;;8.80;6.43;;;25.00;99.90;;;;;;4998380;28;20047;-81
2023/08/21 01:10:47;;;;;;;9.32;6.80;;;25.00;99.90;;;;;;4995422;28;20073;-81
2023/08/21 01:13:25;;;;;;;7.07;6.28;;;24.90;99.90;;;;;;4998627;28;20438;-81
2023/08/21 01:15:55;;;;;;;9.57;7.18;;;24.90;99.90;;;;;;4987249;28;20618;-80
2023/08/21 01:18:22;;;;;;;10.13;7.15;;;24.90;99.90;;;;;;5017836;28;20043;-81
2023/08/21 01:20:51;;;;;;;9.45;7.28;;;24.80;99.90;;;;;;4996360;28;20093;-82
2023/08/21 01:23:32;;;;;;;13.40;6.95;;;24.80;99.90;;;;;;4998904;28;20055;-81
2023/08/21 01:25:59;;;;;;;10.52;7.07;;;24.80;99.90;;;;;;4991703;28;20105;-80
2023/08/21 01:28:26;;;;;;;8.07;6.75;;;24.80;99.90;;;;;;4996745;28;20079;-81
2023/08/21 01:31:02;;;;;;;9.57;6.82;;;24.80;99.90;;;;;;4987262;28;20046;-80
2023/08/21 01:33:33;;;;;;;9.40;7.03;;;24.80;99.90;;;;;;5001985;28;20088;-80
2023/08/21 01:36:03;;;;;;;8.30;6.72;;;24.80;99.90;;;;;;4994848;28;20528;-80
2023/08/21 01:38:33;;;;;;;14.88;7.50;;;24.70;99.90;;;;;;4992547;28;20084;-81
2023/08/21 01:40:59;;;;;;;9.93;6.57;;;24.70;99.90;;;;;;5003875;28;20051;-81
2023/08/21 01:43:26;;;;;;;8.52;6.50;;;24.70;99.90;;;;;;4994755;28;20050;-80
2023/08/21 01:45:53;;;;;;;9.95;6.57;;;24.70;99.90;;;;;;4992105;28;20077;-81
2023/08/21 01:48:20;;;;;;;9.55;7.28;;;24.70;99.90;;;;;;5001508;28;20134;-81
2023/08/21 01:50:47;;;;;;;11.77;7.03;;;24.70;99.90;;;;;;4994865;28;20062;-81
2023/08/21 01:53:14;;;;;;;8.00;6.63;;;24.70;99.90;;;;;;5000980;28;20113;-81
2023/08/21 01:55:40;;;;;;;12.07;6.78;;;24.60;99.90;;;;;;4987851;28;20069;-82
2023/08/21 01:58:07;;;;;;;8.25;6.85;;;24.60;99.90;;;;;;4994906;28;20046;-81
2023/08/21 02:00:34;;;;;;;9.35;7.40;;;24.60;99.90;;;;;;5000015;28;20047;-80
2023/08/21 02:03:00;;;;;;;10.30;7.20;;;24.60;99.90;;;;;;4995759;28;20545;-81
2023/08/21 02:05:27;;;;;;;8.43;6.60;;;24.60;99.90;;;;;;4995817;28;20055;-81
2023/08/21 02:07:54;;;;;;;12.13;6.88;;;24.60;99.90;;;;;;4995490;28;20062;-80
2023/08/21 02:10:21;;;;;;;8.00;6.63;;;24.60;99.90;;;;;;4989156;28;20520;-82
2023/08/21 02:12:49;;;;;;;8.20;7.25;;;24.50;99.90;;;;;;4992265;28;20046;-81
2023/08/21 02:15:16;;;;;;;9.82;7.20;;;24.50;99.90;;;;;;4998602;28;20046;-81
2023/08/21 02:17:43;;;;;;;8.30;6.45;;;24.50;99.90;;;;;;4995845;28;20038;-81
2023/08/21 02:20:10;;;;;;;12.38;8.05;;;24.50;99.90;;;;;;4992952;28;20474;-81
2023/08/21 02:22:37;;;;;;;9.20;7.40;;;24.40;99.90;;;;;;4997218;28;20042;-81
2023/08/21 02:25:05;;;;;;;8.48;7.05;;;24.40;99.90;;;;;;4987403;28;20109;-81
2023/08/21 02:27:31;;;;;;;13.23;7.00;;;24.40;99.90;;;;;;5000309;28;20539;-81
2023/08/21 02:29:58;;;;;;;8.60;7.20;;;24.40;99.90;;;;;;4998545;28;20066;-81
2023/08/21 02:32:25;;;;;;;8.90;6.97;;;24.40;99.90;;;;;;4999901;28;20055;-81
2023/08/21 02:34:52;;;;;;;10.98;7.80;;;24.40;99.90;;;;;;4991432;28;20430;-81
2023/08/21 02:37:18;;;;;;;10.88;7.50;;;24.30;99.90;;;;;;4996099;28;20054;-81
2023/08/21 02:39:45;;;;;;;10.70;7.57;;;24.30;99.90;;;;;;4990023;28;20051;-81
2023/08/21 02:42:12;;;;;;;11.20;6.93;;;24.30;99.90;;;;;;4994848;28;20046;-81
2023/08/21 02:44:38;;;;;;;8.40;7.30;;;24.30;99.90;;;;;;5000806;28;20069;-81
2023/08/21 02:47:05;;;;;;;10.57;7.60;;;24.30;99.90;;;;;;4998880;28;20054;-81
2023/08/21 02:49:32;;;;;;;10.45;7.10;;;24.20;99.90;;;;;;4993954;28;20562;-81
2023/08/21 02:51:59;;;;;;;8.07;7.10;;;24.20;99.90;;;;;;4997564;28;20102;-80
2023/08/21 02:54:25;;;;;;;9.50;6.88;;;24.20;99.90;;;;;;4990792;28;20046;-81
2023/08/21 02:56:52;;;;;;;10.30;7.35;;;24.20;99.90;;;;;;4996874;28;20050;-81
2023/08/21 02:59:19;;;;;;;13.98;7.57;;;24.20;99.90;;;;;;5000343;28;20098;-81
2023/08/21 03:01:46;;;;;;;9.50;7.45;;;24.10;99.90;;;;;;4996684;28;20042;-81
2023/08/21 03:04:13;;;;;;;9.35;7.28;;;24.10;99.90;;;;;;4989454;28;20042;-81
2023/08/21 03:06:39;;;;;;;9.10;7.78;;;24.10;99.90;;;;;;4993809;28;20053;-81
2023/08/21 03:09:06;;;;;;;16.65;7.47;;;24.00;99.90;;;;;;4996980;28;20046;-80
2023/08/21 03:11:33;;;;;;;12.80;7.47;;;24.00;99.90;;;;;;4994986;28;20084;-81
2023/08/21 03:13:59;;;;;;;15.02;8.70;;;24.00;99.90;;;;;;4994747;28;20051;-80
2023/08/21 03:16:26;;;;;;;11.68;7.75;;;24.00;99.90;;;;;;4995878;28;20486;-81
2023/08/21 03:18:58;;;;;;;13.68;7.97;;;24.00;99.90;;;;;;4988869;28;20133;-82
2023/08/21 03:21:26;;;;;;;9.20;7.30;;;24.00;99.90;;;;;;4991280;28;20088;-81
2023/08/21 03:23:56;;;;;;;12.60;7.85;;;24.00;99.90;;;;;;4986338;28;20425;-80
2023/08/21 03:26:23;;;;;;;14.05;8.13;;;23.90;99.90;;;;;;4990421;28;20653;-80
2023/08/21 03:28:50;;;;;;;9.70;7.90;;;23.90;99.90;;;;;;4994881;28;20050;-81
2023/08/21 03:31:17;;;;;;;9.82;7.97;;;23.90;99.90;;;;;;4994297;28;20054;-80
2023/08/21 03:33:44;;;;;;;11.93;7.97;;;23.90;99.90;;;;;;4990268;28;20056;-81
2023/08/21 03:36:11;;;;;;;9.07;7.53;;;23.90;99.90;;;;;;4993228;28;20050;-81
2023/08/21 03:38:37;;;;;;;11.20;8.07;;;23.90;99.90;;;;;;4988213;28;20050;-80
2023/08/21 03:41:05;;;;;;;10.57;8.15;;;23.80;99.90;;;;;;4996015;28;20437;-81
2023/08/21 03:43:32;;;;;;;8.57;7.75;;;23.80;99.90;;;;;;4997454;28;20046;-81
2023/08/21 03:45:59;;;;;;;8.13;7.30;;;23.80;99.90;;;;;;4995538;28;20053;-81
2023/08/21 03:48:26;;;;;;;12.73;7.60;;;23.80;99.90;;;;;;4991946;28;20097;-81
2023/08/21 03:50:52;;;;;;;11.38;8.68;;;23.80;99.90;;;;;;4992052;28;20053;-81
2023/08/21 03:53:19;;;;;;;10.15;7.80;;;23.70;99.90;;;;;;4989701;28;20047;-81
2023/08/21 03:55:46;;;;;;;8.93;7.13;;;23.70;99.90;;;;;;4995228;28;20254;-81
2023/08/21 03:58:14;;;;;;;9.35;7.75;;;23.70;99.90;;;;;;4993972;28;20054;-81
2023/08/21 04:00:40;;;;;;;9.68;7.82;;;23.70;99.90;;;;;;4997790;28;20103;-81
2023/08/21 04:03:07;;;;;;;10.90;8.10;;;23.70;99.90;;;;;;4989126;28;20445;-81
2023/08/21 04:05:34;;;;;;;11.15;7.75;;;23.70;99.90;;;;;;4992925;28;20110;-81
2023/08/21 04:08:01;;;;;;;10.00;7.65;;;23.70;99.90;;;;;;4993567;28;20457;-81
2023/08/21 04:10:27;;;;;;;10.90;7.43;;;23.70;99.90;;;;;;5004385;28;20050;-81
2023/08/21 04:12:54;;;;;;;11.63;8.43;;;23.70;99.90;;;;;;4997015;28;20046;-81
2023/08/21 04:15:21;;;;;;;12.63;8.43;;;23.60;99.90;;;;;;4996339;28;20046;-81
2023/08/21 04:17:47;;;;;;;12.93;7.20;;;23.60;99.90;;;;;;5002473;28;20465;-81
2023/08/21 04:20:14;;;;;;;12.02;8.57;;;23.60;99.90;;;;;;4993043;28;20133;-81
2023/08/21 04:22:41;;;;;;;12.05;8.02;;;23.60;99.90;;;;;;4995717;28;20042;-81
2023/08/21 04:25:08;;;;;;;17.92;8.35;;;23.60;99.90;;;;;;5004222;28;20106;-81
2023/08/21 04:27:35;;;;;;;11.98;8.15;;;23.60;99.90;;;;;;5000343;28;20046;-81
2023/08/21 04:30:02;;;;;;;13.65;7.60;;;23.60;99.90;;;;;;4996794;28;20136;-82
2023/08/21 04:32:28;;;;;;;11.80;8.70;;;23.60;99.90;;;;;;5001482;28;20046;-82
2023/08/21 04:34:55;;;;;;;11.13;7.65;;;23.60;99.90;;;;;;4990845;28;20425;-81
2023/08/21 04:37:23;;;;;;;13.90;8.00;;;23.60;99.90;;;;;;4998923;28;20094;-82
2023/08/21 04:39:53;;;;;;;9.07;7.43;;;23.50;99.90;;;;;;5003578;28;20072;-81
2023/08/21 04:42:21;;;;;;;8.75;7.57;;;23.60;99.90;;;;;;4995148;28;20461;-83
2023/08/21 04:44:47;;;;;;;12.90;8.07;;;23.50;99.90;;;;;;4996694;28;20112;-82
2023/08/21 04:47:21;;;;;;;11.52;7.72;;;23.50;99.90;;;;;;5002064;28;20050;-82
2023/08/21 04:49:49;;;;;;;10.45;7.43;;;23.50;99.90;;;;;;4994142;28;20069;-81
2023/08/21 04:52:16;;;;;;;9.45;7.63;;;23.60;99.90;;;;;;4998857;28;20047;-82
2023/08/21 04:54:43;;;;;;;8.98;7.78;;;23.50;99.90;;;;;;5003102;28;20100;-82
2023/08/21 04:57:12;;;;;;;9.25;7.32;;;23.60;99.90;;;;;;4996143;28;20141;-82
2023/08/21 04:59:39;;;;;;;10.40;8.00;;;23.50;99.90;;;;;;4997181;28;20047;-82
2023/08/21 05:02:06;;;;;;;8.65;7.50;;;23.50;99.90;;;;;;4991105;28;20051;-81
2023/08/21 05:04:35;;;;;;;11.45;8.23;;;23.60;99.90;;;;;;4995171;28;20130;-81
2023/08/21 05:07:02;;;;;;;9.57;8.27;;;23.50;99.90;;;;;;5001986;28;20054;-81
2023/08/21 05:09:30;;;;;;;14.20;7.80;;;23.60;99.90;;;;;;4998788;28;20058;-82
2023/08/21 05:11:56;;;;;;;11.18;9.40;;;23.60;99.90;;;;;;4992475;28;20090;-81
2023/08/21 05:14:23;;;;;;;10.65;8.25;;;23.60;99.90;;;;;;4996110;28;20062;-81
2023/08/21 05:16:50;;;;;;;12.02;6.93;;;23.60;99.90;;;;;;4999515;28;20043;-81
2023/08/21 05:19:17;;;;;;;10.82;7.95;;;23.60;99.90;;;;;;4995666;28;20046;-82
2023/08/21 05:21:45;;;;;;;17.35;8.65;;;23.70;99.90;;;;;;5004167;28;20045;-82
2023/08/21 05:24:12;;;;;;;9.98;7.20;;;23.60;99.90;;;;;;4998277;28;20058;-81
2023/08/21 05:26:39;;;;;;;10.88;6.85;;;23.70;99.90;;;;;;4996310;28;20089;-81
2023/08/21 05:29:06;;;;;;;10.57;7.05;;;23.70;99.90;;;;;;4994026;28;20054;-80
2023/08/21 05:31:33;;;;;;;10.20;7.10;;;23.70;99.90;;;;;;4994058;28;20051;-82
2023/08/21 05:34:00;;;;;;;13.05;8.38;;;23.70;99.90;;;;;;4992540;28;20054;-82
2023/08/21 05:36:27;;;;;;;10.57;7.80;;;23.70;99.90;;;;;;5000274;28;20042;-82
2023/08/21 05:38:56;;;;;;;8.10;7.30;;;23.80;99.90;;;;;;5001608;28;20109;-82
2023/08/21 05:41:22;;;;;;;13.35;8.13;;;23.80;99.90;;;;;;4993847;28;20105;-82
2023/08/21 05:43:49;;;;;;;11.48;7.43;;;23.90;99.90;;;;;;4993192;28;20046;-82
2023/08/21 05:46:16;;;;;;;10.57;7.45;;;23.90;99.90;;;;;;4994000;28;20050;-80
2023/08/21 05:48:43;;;;;;;9.48;7.05;;;23.90;99.90;;;;;;5005091;28;20054;-82
2023/08/21 05:51:09;;;;;;;11.48;7.55;;;23.90;99.90;;;;;;5001668;28;20106;-81
2023/08/21 05:53:36;;;;;;;11.23;7.22;;;24.00;99.90;;;;;;5005590;28;20502;-81
2023/08/21 05:56:03;;;;;;;13.10;8.15;;;24.00;99.90;;;;;;4992022;28;20506;-81
2023/08/21 05:58:32;;;;;;;10.70;7.25;;;24.00;99.90;;;;;;4990955;28;20094;-81
2023/08/21 06:00:59;;;;;;;15.98;8.43;;;24.10;99.90;;;;;;4991913;28;20120;-82
2023/08/21 06:03:26;;;;;;;9.90;7.93;;;24.10;99.90;;;;;;5013919;28;20053;-82
2023/08/21 06:05:53;;;;;;;12.93;7.80;;;24.10;99.90;;;;;;4998300;28;20081;-81
2023/08/21 06:08:19;;;;;;;7.60;6.65;;;24.20;99.90;;;;;;4992200;28;20461;-82
2023/08/21 06:10:51;;;;;;;10.50;7.10;;;24.20;99.90;;;;;;4996644;28;20061;-82
2023/08/21 06:13:18;;;;;;;12.63;7.13;;;24.20;99.90;;;;;;4993454;28;20050;-81
2023/08/21 06:15:45;;;;;;;10.27;7.57;;;24.30;99.90;;;;;;4994040;28;20441;-81
2023/08/21 06:18:12;;;;;;;12.05;7.82;;;24.30;99.90;;;;;;4998839;28;20667;-82
2023/08/21 06:20:39;;;;;;;9.70;7.88;;;24.30;99.90;;;;;;4998384;28;20050;-82
2023/08/21 06:23:05;;;;;;;8.90;8.00;;;24.40;99.90;;;;;;4995195;28;20047;-82
2023/08/21 06:25:33;;;;;;;10.70;8.00;;;24.40;99.90;;;;;;4994642;28;20096;-82
2023/08/21 06:27:59;;;;;;;11.00;8.90;;;24.40;99.90;;;;;;4989934;28;20077;-82
2023/08/21 06:30:27;;;;;;;9.70;7.78;;;24.50;99.90;;;;;;4995196;28;20050;-82
2023/08/21 06:32:55;;;;;;;14.55;8.43;;;24.50;99.90;;;;;;4997051;28;20046;-81
2023/08/21 06:35:22;;;;;;;11.38;7.90;;;24.50;99.90;;;;;;4991970;28;20498;-82
2023/08/21 06:37:49;;;;;;;17.13;9.18;;;24.60;99.90;;;;;;4994009;28;20074;-81
2023/08/21 06:40:15;;;;;;;14.93;9.02;;;24.70;99.90;;;;;;4993947;28;20046;-80
2023/08/21 06:42:42;;;;;;;15.57;9.07;;;24.70;99.90;;;;;;4994702;28;20634;-81
2023/08/21 06:45:09;;;;;;;12.18;8.10;;;24.70;99.90;;;;;;4996636;28;20413;-81
2023/08/21 06:47:36;;;;;;;14.25;7.85;;;24.70;99.90;;;;;;4996391;28;20042;-80
2023/08/21 06:50:03;;;;;;;12.82;8.02;;;24.70;99.90;;;;;;4989537;28;20109;-82
2023/08/21 06:52:30;;;;;;;9.93;8.55;;;24.80;99.90;;;;;;4995249;28;20054;-81
2023/08/21 06:54:57;;;;;;;10.60;8.45;;;24.80;99.90;;;;;;4995519;28;20050;-81
2023/08/21 06:57:23;;;;;;;10.57;8.02;;;24.80;99.90;;;;;;4991898;28;20047;-83
2023/08/21 06:59:50;;;;;;;12.93;8.18;;;24.90;99.90;;;;;;4997668;28;20050;-82
2023/08/21 07:02:17;;;;;;;10.48;8.00;;;25.00;99.90;;;;;;4995982;28;20175;-81
2023/08/21 07:04:43;;;;;;;10.52;7.65;;;25.00;99.90;;;;;;4989315;28;20043;-81
2023/08/21 07:07:10;;;;;;;12.20;8.50;;;25.00;99.90;;;;;;4992255;28;20042;-81
2023/08/21 07:09:37;;;;;;;14.15;9.52;;;25.00;99.90;;;;;;4996063;28;20050;-81
2023/08/21 07:12:04;;;;;;;11.77;8.88;;;25.10;99.90;;;;;;4989988;28;20494;-82
2023/08/21 07:14:31;;;;;;;15.82;8.93;;;25.10;99.90;;;;;;4991933;28;20060;-82
2023/08/21 07:16:57;;;;;;;15.20;8.27;;;25.10;99.90;;;;;;4993430;28;20128;-81
2023/08/21 07:19:24;;;;;;;11.43;8.48;;;25.20;99.90;;;;;;4986003;28;20054;-82
2023/08/21 07:21:51;;;;;;;14.10;8.48;;;25.20;99.90;;;;;;4989303;28;20050;-81
2023/08/21 07:24:17;;;;;;;11.05;8.82;;;25.20;99.90;;;;;;4991328;28;20043;-82
2023/08/21 07:26:44;;;;;;;13.25;8.30;;;25.20;99.90;;;;;;4985042;28;20513;-82
2023/08/21 07:29:11;;;;;;;11.70;8.88;;;25.30;99.90;;;;;;4993917;28;20635;-81
2023/08/21 07:31:38;;;;;;;13.65;8.48;;;25.30;99.90;;;;;;4995713;28;20583;-81
2023/08/21 07:34:05;;;;;;;14.43;8.65;;;25.30;99.90;;;;;;4992323;28;20050;-81
2023/08/21 07:36:32;;;;;;;11.23;8.30;;;25.40;99.90;;;;;;4992203;28;20043;-82
2023/08/21 07:38:59;;;;;;;10.90;8.65;;;25.40;99.90;;;;;;4995850;28;20190;-82
2023/08/21 07:41:25;;;;;;;11.27;8.07;;;25.40;99.90;;;;;;4989011;28;20420;-82
2023/08/21 07:43:53;;;;;;;15.25;8.65;;;25.50;99.90;;;;;;4998345;28;20054;-82
2023/08/21 07:46:20;;;;;;;13.25;8.50;;;25.50;99.90;;;;;;5000362;28;20061;-82
2023/08/21 07:48:47;;;;;;;13.02;7.95;;;25.50;99.90;;;;;;5001593;28;20137;-83
2023/08/21 07:51:14;;;;;;;12.98;8.77;;;25.50;99.90;;;;;;4994394;28;20043;-82
2023/08/21 07:53:40;;;;;;;11.10;8.02;;;25.60;99.90;;;;;;4997817;28;20053;-82
2023/08/21 07:56:07;;;;;;;10.40;8.45;;;25.60;99.90;;;;;;4992518;28;20047;-82
2023/08/21 07:58:34;;;;;;;10.30;8.02;;;25.60;99.90;;;;;;4997192;28;20046;-82
2023/08/21 08:01:01;;;;;;;18.15;8.55;;;25.70;99.90;;;;;;5001608;28;20038;-81
2023/08/21 08:03:28;;;;;;;10.77;7.65;;;25.70;99.90;;;;;;4998164;28;20043;-82
2023/08/21 08:05:55;;;;;;;8.82;7.80;;;25.80;99.90;;;;;;4997037;28;20077;-82
2023/08/21 08:08:22;;;;;;;12.57;8.52;;;25.80;99.90;;;;;;4998569;28;20047;-82
2023/08/21 08:10:49;;;;;;;12.05;7.88;;;25.90;99.90;;;;;;4996350;28;20074;-81
2023/08/21 08:13:16;;;;;;;10.30;7.97;;;25.90;99.90;;;;;;5007747;28;20189;-83
2023/08/21 08:15:43;;;;;;;9.73;7.90;;;25.90;99.90;;;;;;5003432;28;20042;-82
2023/08/21 08:18:13;;;;;;;9.77;7.82;;;25.90;99.90;;;;;;4999808;28;20054;-82
2023/08/21 08:20:40;;;;;;;;;;;26.00;99.90;;;;;;4994313;28;20042;-81
2023/08/21 08:23:07;;;;;;;12.40;7.40;;;26.00;99.90;;;;;;4998715;28;20001;-82
2023/08/21 08:25:34;;;;;;;12.35;9.07;;;26.00;99.90;;;;;;5003697;28;20046;-81
2023/08/21 08:28:00;;;;;;;11.70;8.00;;;26.10;99.90;;;;;;5004181;28;20100;-82
2023/08/21 08:30:27;;;;;;;15.63;8.85;;;26.10;99.90;;;;;;4999939;28;20050;-83
2023/08/21 08:32:54;;;;;;;12.20;7.28;;;26.20;99.90;;;;;;5001371;28;20053;-82
2023/08/21 08:35:21;;;;;;;9.13;7.55;;;26.20;99.90;;;;;;4997740;28;20049;-82
2023/08/21 08:37:48;;;;;;;11.50;7.47;;;26.20;99.90;;;;;;5003800;28;20038;-82
2023/08/21 08:40:15;;;;;;;11.18;7.25;;;26.30;99.90;;;;;;5002797;28;20046;-82
2023/08/21 08:42:42;;;;;;;10.77;7.82;;;26.40;99.90;;;;;;5003656;28;20055;-82
2023/08/21 08:45:12;;;;;;;12.55;8.00;;;26.40;99.90;;;;;;5007438;28;20049;-80
2023/08/21 08:47:40;;;;;;;10.13;7.18;;;26.40;99.90;;;;;;5005615;28;20395;-83
2023/08/21 08:50:08;;;;;;;10.07;7.88;;;26.50;99.90;;;;;;5008274;28;20054;-82
2023/08/21 08:52:38;;;;;;;12.43;7.43;;;26.50;99.90;;;;;;5005154;28;20047;-81
2023/08/21 08:55:06;;;;;;;10.15;6.82;;;26.50;99.90;;;;;;5005952;28;20077;-80
2023/08/21 08:57:34;;;;;;;8.00;6.30;;;26.50;99.90;;;;;;5003624;28;20074;-82
2023/08/21 09:00:05;;;;;;;10.60;6.70;;;26.60;99.90;;;;;;5003349;28;20053;-81
2023/08/21 09:02:32;;;;;;;7.78;6.63;;;26.60;99.90;;;;;;5019537;28;20050;-82
2023/08/21 09:04:59;;;;;;;8.30;6.22;;;26.70;99.90;;;;;;5004403;28;20565;-82
2023/08/21 09:07:25;;;;;;;9.68;6.70;;;26.70;99.90;;;;;;5004369;28;20042;-81
2023/08/21 09:09:52;;;;;;;15.13;6.32;;;26.70;99.90;;;;;;5005472;28;20082;-82
2023/08/21 09:12:20;;;;;;;10.55;7.05;;;26.80;99.90;;;;;;5012502;28;20129;-81
2023/08/21 09:14:47;;;;;;;8.93;6.88;;;26.80;99.90;;;;;;5000485;28;20117;-81
2023/08/21 09:17:15;;;;;;;10.55;6.40;;;26.90;99.90;;;;;;5002664;28;20058;-82
2023/08/21 09:19:42;;;;;;;7.93;6.45;;;26.90;99.90;;;;;;4994023;28;20094;-82
2023/08/21 09:22:17;;;;;;;10.70;6.22;;;27.00;99.90;;;;;;4998583;28;20046;-82
2023/08/21 09:25:14;;;;;;;9.75;6.97;;;27.00;99.90;;;;;;5002669;28;20038;-83
2023/08/21 09:27:40;;;;;;;8.45;6.53;;;27.00;99.90;;;;;;4990698;28;20082;-82
2023/08/21 09:30:15;;;;;;;11.68;7.05;;;27.10;99.90;;;;;;4993056;28;20046;-83
2023/08/21 09:33:00;;;;;;;10.45;6.45;;;27.10;99.90;;;;;;4999740;28;20053;-82
2023/08/21 09:35:27;;;;;;;7.47;6.43;;;27.10;99.90;;;;;;4992451;28;20046;-84
2023/08/21 09:37:53;;;;;;;11.75;6.85;;;27.10;99.90;;;;;;5005559;28;20564;-82
2023/08/21 09:40:21;;;;;;;10.05;6.35;;;27.20;99.90;;;;;;5000073;28;20050;-82
2023/08/21 09:42:54;;;;;;;8.32;6.00;;;27.30;99.90;;;;;;5000325;28;20043;-82
2023/08/21 09:45:25;;;;;;;8.63;6.15;;;27.30;99.90;;;;;;4999069;28;20051;-82
2023/08/21 09:47:55;;;;;;;9.48;6.38;;;27.40;99.90;;;;;;5001440;28;20054;-83
2023/08/21 09:50:22;;;;;;;9.43;6.65;;;27.40;99.90;;;;;;5008015;28;20050;-83
2023/08/21 09:52:49;;;;;;;9.60;6.28;;;27.40;99.90;;;;;;4995076;28;20054;-82
2023/08/21 09:55:17;;;;;;;9.45;6.57;;;27.50;99.90;;;;;;4996229;28;20046;-83
2023/08/21 09:57:45;;;;;;;9.57;6.35;;;27.60;99.90;;;;;;4993383;28;20518;-83
2023/08/21 10:00:20;;;;;;;6.50;5.50;;;27.60;99.90;;;;;;5003317;28;20046;-83
2023/08/21 10:02:51;;;;;;;9.93;6.65;;;27.60;99.90;;;;;;4996149;28;20069;-82
2023/08/21 10:05:19;;;;;;;10.52;6.40;;;27.70;99.90;;;;;;4995341;28;20046;-81
2023/08/21 10:07:49;;;;;;;9.73;5.82;;;27.80;99.90;;;;;;5003678;28;20046;-81
2023/08/21 10:10:17;;;;;;;8.10;6.00;;;27.80;99.90;;;;;;4999387;28;20084;-82
2023/08/21 10:12:44;;;;;;;12.15;5.72;;;27.90;99.90;;;;;;4999428;28;20131;-82
2023/08/21 10:15:11;;;;;;;8.02;6.03;;;27.90;99.90;;;;;;4999327;28;20049;-82
2023/08/21 10:17:39;;;;;;;7.90;5.70;;;28.00;99.90;;;;;;4999529;28;20069;-81
2023/08/21 10:20:09;;;;;;;9.27;5.18;;;28.00;99.90;;;;;;4996020;28;20046;-82
2023/08/21 10:22:48;;;;;;;7.63;5.93;;;28.10;99.90;;;;;;4998200;28;20106;-81
2023/08/21 10:25:27;;;;;;;9.32;6.28;;;28.10;99.90;;;;;;5000394;28;20458;-83
2023/08/21 10:28:03;;;;;;;7.32;5.70;;;28.20;99.90;;;;;;4995466;28;20058;-83
2023/08/21 10:30:30;;;;;;;11.98;5.60;;;28.20;99.90;;;;;;4994638;28;20046;-83
2023/08/21 10:32:59;;;;;;;10.60;5.82;;;28.30;99.90;;;;;;4998767;28;20064;-83
2023/08/21 10:35:31;;;;;;;9.60;5.47;;;28.30;99.90;;;;;;5005746;28;20504;-82
2023/08/21 10:38:13;;;;;;;10.57;5.63;;;28.30;99.90;;;;;;5001433;28;20600;-83
2023/08/21 10:41:00;;;;;;;9.15;5.65;;;28.30;99.90;;;;;;4999520;28;20050;-81
2023/08/21 10:43:45;;;;;;;8.50;5.40;;;28.40;99.90;;;;;;4994856;28;20043;-82
2023/08/21 10:46:12;;;;;;;9.10;5.25;;;28.50;99.90;;;;;;5000183;28;20046;-83
2023/08/21 10:48:40;;;;;;;9.55;5.72;;;28.50;99.90;;;;;;4998079;28;20537;-82
2023/08/21 10:51:08;;;;;;;11.43;6.18;;;28.60;99.90;;;;;;5000076;28;20062;-82
2023/08/21 10:53:37;;;;;;;12.45;5.90;;;28.60;99.90;;;;;;4996348;28;20042;-82
2023/08/21 10:56:05;;;;;;;9.13;5.95;;;28.70;99.90;;;;;;4997429;28;20051;-83
2023/08/21 10:58:47;;;;;;;10.05;5.97;;;28.80;99.90;;;;;;4988016;28;20401;-82
2023/08/21 11:01:14;;;;;;;8.82;6.32;;;28.80;99.90;;;;;;4994060;28;20046;-82
2023/08/21 11:03:44;;;;;;;13.95;5.97;;;28.90;99.90;;;;;;5017044;28;20490;-82
2023/08/21 11:06:11;;;;;;;8.20;5.55;;;28.90;99.90;;;;;;5005881;28;20045;-82
2023/08/21 11:08:38;;;;;;;8.18;5.50;;;29.00;99.90;;;;;;4998021;28;20055;-82
2023/08/21 11:11:06;;;;;;;7.80;5.70;;;29.00;99.90;;;;;;5001105;28;20050;-82
2023/08/21 11:13:33;;;;;;;9.38;6.10;;;29.00;99.90;;;;;;4989177;28;20050;-82
2023/08/21 11:16:05;;;;;;;6.75;5.85;;;29.10;99.90;;;;;;4999170;28;20097;-82
2023/08/21 11:18:37;;;;;;;9.90;5.82;;;29.20;99.90;;;;;;4999659;28;20046;-83
2023/08/21 11:21:09;;;;;;;10.65;5.68;;;29.30;99.90;;;;;;5001216;28;20072;-82
2023/08/21 11:23:41;;;;;;;7.63;5.40;;;29.30;99.90;;;;;;4994216;28;20046;-82
2023/08/21 11:26:12;;;;;;;8.95;5.70;;;29.30;99.90;;;;;;4998805;28;20051;-83
2023/08/21 11:28:41;;;;;;;6.35;5.30;;;29.30;99.90;;;;;;4988116;28;20087;-83
2023/08/21 11:31:09;;;;;;;11.73;5.20;;;29.40;99.90;;;;;;5003552;28;20050;-83
2023/08/21 11:33:38;;;;;;;9.52;5.40;;;29.40;99.90;;;;;;5002587;28;20106;-83
2023/08/21 11:36:05;;;;;;;6.67;5.60;;;29.40;99.90;;;;;;5009413;28;20061;-82
2023/08/21 11:38:32;;;;;;;10.95;5.72;;;29.50;99.90;;;;;;4995176;28;20046;-83
2023/08/21 11:41:02;;;;;;;12.88;6.10;;;29.50;99.90;;;;;;5000014;28;20054;-82
2023/08/21 11:43:35;;;;;;;10.30;6.05;;;29.50;99.90;;;;;;4986640;28;20501;-82
2023/08/21 11:46:04;;;;;;;8.38;5.25;;;29.60;99.90;;;;;;5001038;28;20051;-82
2023/08/21 11:48:31;;;;;;;6.78;5.50;;;29.60;99.90;;;;;;5001060;28;20050;-82
2023/08/21 11:50:58;;;;;;;7.43;5.80;;;29.60;99.90;;;;;;4992337;28;20070;-82
2023/08/21 11:53:35;;;;;;;7.72;4.38;;;29.70;99.90;;;;;;4989165;28;20075;-82
2023/08/21 11:56:08;;;;;;;11.68;5.35;;;29.70;99.90;;;;;;4994804;28;20051;-83
2023/08/21 11:58:46;;;;;;;9.80;5.47;;;29.70;99.90;;;;;;4989963;28;20073;-83
2023/08/21 12:01:22;;;;;;;5.63;4.80;;;29.70;99.90;;;;;;4995631;28;20058;-83
2023/08/21 12:03:54;;;;;;;9.32;5.28;;;29.90;99.90;;;;;;4994609;28;20049;-82
2023/08/21 12:06:23;;;;;;;10.65;5.57;;;29.90;99.90;;;;;;4989632;28;20047;-82
2023/08/21 12:08:49;;;;;;;6.82;5.55;;;29.90;99.90;;;;;;4988491;28;20418;-82
2023/08/21 12:11:16;;;;;;;6.60;5.15;;;30.00;99.90;;;;;;4994238;28;20050;-82
2023/08/21 12:13:43;;;;;;;10.95;5.65;;;30.00;99.90;;;;;;4992672;28;20394;-83
2023/08/21 12:16:10;;;;;;;7.85;5.45;;;30.00;99.90;;;;;;4995567;28;20078;-82
2023/08/21 12:18:36;;;;;;;10.60;5.43;;;30.00;99.90;;;;;;4994391;28;20039;-83
2023/08/21 12:21:03;;;;;;;9.77;5.43;;;30.00;99.90;;;;;;4993254;28;20043;-83
2023/08/21 12:23:30;;;;;;;13.45;5.65;;;30.10;99.90;;;;;;4988206;28;20098;-82
2023/08/21 12:25:57;;;;;;;8.90;5.07;;;30.20;99.90;;;;;;4997085;28;20096;-81
2023/08/21 12:28:23;;;;;;;11.30;5.65;;;30.20;99.90;;;;;;4998725;28;20046;-82
2023/08/21 12:30:50;;;;;;;14.85;6.20;;;30.20;99.90;;;;;;4998088;28;20081;-83
2023/08/21 12:33:17;;;;;;;12.02;5.45;;;30.20;99.90;;;;;;5000301;28;20047;-83
2023/08/21 12:35:50;;;;;;;19.52;7.32;;;30.20;99.90;;;;;;4996831;28;20512;-83
2023/08/21 12:38:17;;;;;;;8.98;5.25;;;30.20;99.90;;;;;;4997773;28;20052;-83
2023/08/21 12:40:44;;;;;;;10.77;5.43;;;30.30;99.90;;;;;;5003794;28;20047;-84
2023/08/21 12:43:10;;;;;;;11.90;5.80;;;30.30;99.90;;;;;;5007012;28;20111;-83
2023/08/21 12:45:37;;;;;;;11.23;5.38;;;30.40;99.90;;;;;;4996175;28;20103;-83